createdAt,value
2017-02-16T00:00:26.641Z,0
2017-02-16T00:01:07.137Z,0
2017-02-16T00:01:47.635Z,0
2017-02-16T00:02:28.124Z,0
2017-02-16T00:03:08.614Z,0
2017-02-16T00:03:49.121Z,0
2017-02-16T00:04:29.608Z,0
2017-02-16T00:05:10.132Z,0
2017-02-16T00:05:50.627Z,0
2017-02-16T00:06:31.125Z,0
2017-02-16T00:07:11.627Z,0
2017-02-16T00:07:52.115Z,0
2017-02-16T00:08:32.630Z,0
2017-02-16T00:09:13.128Z,0
2017-02-16T00:09:53.629Z,0
2017-02-16T00:10:34.123Z,0
2017-02-16T00:11:14.629Z,0
2017-02-16T00:11:55.113Z,0
2017-02-16T00:12:35.623Z,0
2017-02-16T00:13:16.121Z,0
2017-02-16T00:13:56.619Z,0
2017-02-16T00:14:37.115Z,0
2017-02-16T00:15:17.597Z,0
2017-02-16T00:15:58.094Z,0
2017-02-16T00:16:38.584Z,0
2017-02-16T00:17:19.078Z,0
2017-02-16T00:17:59.589Z,0
2017-02-16T00:18:40.077Z,0
2017-02-16T00:19:20.568Z,0
2017-02-16T00:20:01.063Z,0
2017-02-16T00:20:41.556Z,0
2017-02-16T00:21:22.060Z,0
2017-02-16T00:22:02.556Z,0
2017-02-16T00:22:43.066Z,0
2017-02-16T00:23:23.551Z,0
2017-02-16T00:24:04.044Z,0
2017-02-16T00:24:44.580Z,0
2017-02-16T00:25:25.065Z,0
2017-02-16T00:26:05.560Z,0
2017-02-16T00:26:46.060Z,0
2017-02-16T00:27:26.548Z,0
2017-02-16T00:28:07.029Z,0
2017-02-16T00:28:47.521Z,0
2017-02-16T00:29:28.024Z,0
2017-02-16T00:30:08.515Z,0
2017-02-16T00:30:49.023Z,0
2017-02-16T00:31:29.512Z,0
2017-02-16T00:32:10.005Z,0
2017-02-16T00:32:50.504Z,0
2017-02-16T00:33:30.972Z,0
2017-02-16T00:34:11.495Z,0
2017-02-16T00:34:51.986Z,0
2017-02-16T00:35:32.478Z,0
2017-02-16T00:36:13.094Z,0
2017-02-16T00:36:53.612Z,0
2017-02-16T00:37:34.101Z,0
2017-02-16T00:38:14.607Z,0
2017-02-16T00:38:55.095Z,0
2017-02-16T00:39:35.607Z,0
2017-02-16T00:40:16.088Z,0
2017-02-16T00:40:56.602Z,0
2017-02-16T00:41:37.086Z,0
2017-02-16T00:42:17.576Z,0
2017-02-16T00:42:58.085Z,0
2017-02-16T00:43:38.569Z,0
2017-02-16T00:44:19.067Z,0
2017-02-16T00:44:59.557Z,0
2017-02-16T00:45:40.052Z,0
2017-02-16T00:46:20.562Z,0
2017-02-16T00:47:01.048Z,0
2017-02-16T00:47:41.553Z,0
2017-02-16T00:48:22.045Z,0
2017-02-16T00:49:02.539Z,0
2017-02-16T00:49:43.034Z,0
2017-02-16T00:50:23.528Z,0
2017-02-16T00:51:04.041Z,0
2017-02-16T00:51:44.534Z,0
2017-02-16T00:52:25.033Z,0
2017-02-16T00:53:05.522Z,0
2017-02-16T00:53:46.043Z,0
2017-02-16T00:54:26.533Z,0
2017-02-16T00:55:07.030Z,0
2017-02-16T00:55:47.533Z,0
2017-02-16T00:56:28.030Z,0
2017-02-16T00:57:08.520Z,0
2017-02-16T00:57:49.000Z,0
2017-02-16T00:58:29.494Z,0
2017-02-16T00:59:09.994Z,0
2017-02-16T00:59:50.483Z,0
2017-02-16T01:00:30.993Z,0
2017-02-16T01:01:11.482Z,0
2017-02-16T01:01:51.999Z,0
2017-02-16T01:02:32.484Z,0
2017-02-16T01:03:12.995Z,0
2017-02-16T01:03:53.491Z,0
2017-02-16T01:04:33.990Z,0
2017-02-16T01:05:14.478Z,0
2017-02-16T01:05:54.990Z,0
2017-02-16T01:06:35.480Z,0
2017-02-16T01:07:15.974Z,0
2017-02-16T01:07:56.471Z,0
2017-02-16T01:08:36.967Z,0
2017-02-16T01:09:17.471Z,0
2017-02-16T01:09:57.953Z,0
2017-02-16T01:10:38.449Z,0
2017-02-16T01:11:18.960Z,0
2017-02-16T01:11:59.468Z,0
2017-02-16T01:12:39.960Z,0
2017-02-16T01:13:20.468Z,0
2017-02-16T01:14:00.965Z,0
2017-02-16T01:14:41.464Z,0
2017-02-16T01:15:21.954Z,0
2017-02-16T01:16:02.463Z,0
2017-02-16T01:16:42.962Z,0
2017-02-16T01:17:23.460Z,0
2017-02-16T01:18:03.950Z,0
2017-02-16T01:18:44.438Z,0
2017-02-16T01:19:24.923Z,0
2017-02-16T01:20:05.420Z,0
2017-02-16T01:20:45.913Z,0
2017-02-16T01:21:26.408Z,0
2017-02-16T01:22:06.904Z,0
2017-02-16T01:22:47.393Z,0
2017-02-16T01:23:27.885Z,0
2017-02-16T01:24:08.403Z,0
2017-02-16T01:24:48.900Z,0
2017-02-16T01:25:29.434Z,0
2017-02-16T01:26:09.944Z,0
2017-02-16T01:26:50.447Z,0
2017-02-16T01:27:30.939Z,0
2017-02-16T01:28:11.609Z,0
2017-02-16T01:28:52.114Z,0
2017-02-16T01:29:32.608Z,0
2017-02-16T01:30:13.105Z,0
2017-02-16T01:30:53.595Z,0
2017-02-16T01:31:34.105Z,0
2017-02-16T01:32:14.604Z,0
2017-02-16T01:32:55.097Z,0
2017-02-16T01:33:35.586Z,0
2017-02-16T01:34:16.084Z,0
2017-02-16T01:34:56.585Z,0
2017-02-16T01:35:37.079Z,0
2017-02-16T01:36:17.567Z,0
2017-02-16T01:36:58.063Z,0
2017-02-16T01:37:38.556Z,0
2017-02-16T01:38:19.056Z,0
2017-02-16T01:38:59.546Z,0
2017-02-16T01:39:40.042Z,0
2017-02-16T01:40:20.545Z,0
2017-02-16T01:41:01.031Z,0
2017-02-16T01:41:41.530Z,0
2017-02-16T01:42:22.029Z,0
2017-02-16T01:43:02.515Z,0
2017-02-16T01:43:43.015Z,0
2017-02-16T01:44:23.503Z,0
2017-02-16T01:45:03.994Z,0
2017-02-16T01:45:44.507Z,0
2017-02-16T01:46:25.009Z,0
2017-02-16T01:47:05.501Z,0
2017-02-16T01:47:45.992Z,0
2017-02-16T01:48:26.487Z,0
2017-02-16T01:49:06.983Z,0
2017-02-16T01:49:47.480Z,0
2017-02-16T01:50:27.985Z,0
2017-02-16T01:51:08.481Z,0
2017-02-16T01:51:48.985Z,0
2017-02-16T01:52:29.475Z,0
2017-02-16T01:53:09.980Z,0
2017-02-16T01:53:50.477Z,0
2017-02-16T01:54:30.974Z,0
2017-02-16T01:55:11.471Z,0
2017-02-16T01:55:51.983Z,0
2017-02-16T01:56:32.466Z,0
2017-02-16T01:57:12.959Z,0
2017-02-16T01:57:53.474Z,0
2017-02-16T01:58:33.975Z,0
2017-02-16T01:59:14.681Z,0
2017-02-16T01:59:55.176Z,0
2017-02-16T02:00:35.668Z,0
2017-02-16T02:01:16.176Z,0
2017-02-16T02:01:56.662Z,0
2017-02-16T02:02:37.169Z,0
2017-02-16T02:03:17.659Z,0
2017-02-16T02:03:58.147Z,0
2017-02-16T02:04:38.634Z,0
2017-02-16T02:05:19.133Z,0
2017-02-16T02:05:59.625Z,0
2017-02-16T02:06:40.111Z,0
2017-02-16T02:07:20.596Z,0
2017-02-16T02:08:01.090Z,0
2017-02-16T02:08:41.579Z,0
2017-02-16T02:09:22.073Z,0
2017-02-16T02:10:02.563Z,0
2017-02-16T02:10:43.064Z,0
2017-02-16T02:11:23.565Z,0
2017-02-16T02:12:04.065Z,0
2017-02-16T02:12:44.548Z,0
2017-02-16T02:13:25.062Z,0
2017-02-16T02:14:05.554Z,0
2017-02-16T02:14:46.064Z,0
2017-02-16T02:15:26.550Z,0
2017-02-16T02:16:07.033Z,0
2017-02-16T02:16:47.520Z,0
2017-02-16T02:17:28.013Z,0
2017-02-16T02:18:08.508Z,0
2017-02-16T02:18:49.008Z,0
2017-02-16T02:19:29.505Z,0
2017-02-16T02:20:09.994Z,0
2017-02-16T02:20:50.485Z,0
2017-02-16T02:21:30.992Z,0
2017-02-16T02:22:11.482Z,0
2017-02-16T02:22:51.984Z,0
2017-02-16T02:23:32.468Z,0
2017-02-16T02:24:12.960Z,0
2017-02-16T02:24:53.464Z,0
2017-02-16T02:25:33.953Z,0
2017-02-16T02:26:14.447Z,0
2017-02-16T02:26:54.949Z,0
2017-02-16T02:27:35.447Z,0
2017-02-16T02:28:15.948Z,0
2017-02-16T02:28:56.449Z,0
2017-02-16T02:29:36.944Z,0
2017-02-16T02:30:17.436Z,0
2017-02-16T02:30:57.938Z,0
2017-02-16T02:31:38.432Z,0
2017-02-16T02:32:18.927Z,0
2017-02-16T02:32:59.433Z,0
2017-02-16T02:33:39.971Z,0
2017-02-16T02:34:20.436Z,0
2017-02-16T02:35:00.916Z,0
2017-02-16T02:35:41.413Z,0
2017-02-16T02:36:21.904Z,0
2017-02-16T02:37:02.392Z,0
2017-02-16T02:37:42.890Z,0
2017-02-16T02:38:23.385Z,0
2017-02-16T02:39:03.887Z,0
2017-02-16T02:39:44.382Z,0
2017-02-16T02:40:24.873Z,0
2017-02-16T02:41:05.359Z,0
2017-02-16T02:41:45.856Z,0
2017-02-16T02:42:26.345Z,0
2017-02-16T02:43:06.836Z,0
2017-02-16T02:43:47.320Z,0
2017-02-16T02:44:27.824Z,0
2017-02-16T02:45:08.306Z,0
2017-02-16T02:45:48.797Z,0
2017-02-16T02:46:29.285Z,0
2017-02-16T02:47:09.793Z,0
2017-02-16T02:47:50.326Z,0
2017-02-16T02:48:30.790Z,0
2017-02-16T02:49:11.280Z,0
2017-02-16T02:49:51.775Z,0
2017-02-16T02:50:32.277Z,0
2017-02-16T02:51:12.765Z,0
2017-02-16T02:51:53.273Z,0
2017-02-16T02:52:33.758Z,0
2017-02-16T02:53:14.252Z,0
2017-02-16T02:53:54.758Z,0
2017-02-16T02:54:35.248Z,0
2017-02-16T02:55:15.731Z,0
2017-02-16T02:55:56.241Z,0
2017-02-16T02:56:36.742Z,0
2017-02-16T02:57:17.229Z,0
2017-02-16T02:57:57.718Z,0
2017-02-16T02:58:38.217Z,0
2017-02-16T02:59:18.710Z,0
2017-02-16T02:59:59.214Z,0
2017-02-16T03:02:12.006Z,0
2017-02-16T03:02:52.490Z,0
2017-02-16T03:03:32.977Z,0
2017-02-16T03:04:13.475Z,0
2017-02-16T03:04:54.183Z,0
2017-02-16T03:05:34.680Z,0
2017-02-16T03:06:15.173Z,0
2017-02-16T03:06:55.673Z,0
2017-02-16T03:07:36.172Z,0
2017-02-16T03:08:16.671Z,0
2017-02-16T03:08:57.171Z,0
2017-02-16T03:09:37.658Z,0
2017-02-16T03:10:18.151Z,0
2017-02-16T03:10:58.650Z,0
2017-02-16T03:11:39.136Z,0
2017-02-16T03:12:19.626Z,0
2017-02-16T03:13:00.120Z,0
2017-02-16T03:13:40.618Z,0
2017-02-16T03:14:21.109Z,0
2017-02-16T03:15:01.612Z,0
2017-02-16T03:15:42.102Z,0
2017-02-16T03:16:22.591Z,0
2017-02-16T03:17:03.081Z,0
2017-02-16T03:17:43.567Z,0
2017-02-16T03:18:24.065Z,0
2017-02-16T03:19:04.559Z,0
2017-02-16T03:19:45.055Z,0
2017-02-16T03:20:25.545Z,0
2017-02-16T03:21:06.029Z,0
2017-02-16T03:21:46.517Z,0
2017-02-16T03:22:27.021Z,0
2017-02-16T03:23:07.511Z,0
2017-02-16T03:23:48.000Z,0
2017-02-16T03:24:28.502Z,0
2017-02-16T03:25:08.994Z,0
2017-02-16T03:25:49.482Z,0
2017-02-16T03:26:29.966Z,0
2017-02-16T03:27:10.466Z,0
2017-02-16T03:27:50.957Z,0
2017-02-16T03:28:31.452Z,0
2017-02-16T03:29:11.950Z,0
2017-02-16T03:29:52.440Z,0
2017-02-16T03:30:32.944Z,0
2017-02-16T03:31:13.436Z,0
2017-02-16T03:31:53.948Z,0
2017-02-16T03:32:34.440Z,0
2017-02-16T03:33:14.950Z,0
2017-02-16T03:33:55.441Z,0
2017-02-16T03:34:35.937Z,0
2017-02-16T03:35:16.435Z,0
2017-02-16T03:35:56.932Z,0
2017-02-16T03:36:37.431Z,0
2017-02-16T03:37:17.949Z,0
2017-02-16T03:37:58.436Z,0
2017-02-16T03:38:38.939Z,0
2017-02-16T03:39:19.458Z,0
2017-02-16T03:39:59.905Z,0
2017-02-16T03:40:40.390Z,0
2017-02-16T03:41:20.884Z,0
2017-02-16T03:42:01.379Z,0
2017-02-16T03:42:41.878Z,0
2017-02-16T03:43:22.383Z,0
2017-02-16T03:44:02.898Z,0
2017-02-16T03:44:43.360Z,0
2017-02-16T03:45:23.854Z,0
2017-02-16T03:46:04.344Z,0
2017-02-16T03:46:44.842Z,0
2017-02-16T03:47:25.331Z,0
2017-02-16T03:48:05.826Z,0
2017-02-16T03:48:46.315Z,0
2017-02-16T03:49:26.806Z,0
2017-02-16T03:50:07.418Z,0
2017-02-16T03:50:47.902Z,0
2017-02-16T03:51:28.394Z,0
2017-02-16T03:52:08.892Z,0
2017-02-16T03:52:49.379Z,0
2017-02-16T03:53:29.866Z,0
2017-02-16T03:54:10.379Z,0
2017-02-16T03:54:50.870Z,0
2017-02-16T03:55:31.368Z,0
2017-02-16T03:56:11.860Z,0
2017-02-16T03:56:52.353Z,0
2017-02-16T03:57:32.860Z,0
2017-02-16T03:58:13.367Z,0
2017-02-16T03:58:53.859Z,0
2017-02-16T03:59:34.349Z,0
2017-02-16T04:00:14.838Z,0
2017-02-16T04:00:55.360Z,0
2017-02-16T04:01:35.839Z,0
2017-02-16T04:02:16.336Z,0
2017-02-16T04:02:56.825Z,0
2017-02-16T04:03:37.317Z,0
2017-02-16T04:04:17.812Z,0
2017-02-16T04:04:58.303Z,0
2017-02-16T04:05:38.796Z,0
2017-02-16T04:06:19.309Z,0
2017-02-16T04:06:59.815Z,0
2017-02-16T04:07:40.302Z,0
2017-02-16T04:08:20.815Z,0
2017-02-16T04:09:01.310Z,0
2017-02-16T04:09:41.804Z,0
2017-02-16T04:10:22.293Z,0
2017-02-16T04:11:02.791Z,0
2017-02-16T04:11:43.287Z,0
2017-02-16T04:12:23.774Z,0
2017-02-16T04:13:04.261Z,0
2017-02-16T04:13:44.745Z,0
2017-02-16T04:14:25.257Z,0
2017-02-16T04:15:05.740Z,0
2017-02-16T04:15:46.229Z,0
2017-02-16T04:16:26.718Z,0
2017-02-16T04:17:07.219Z,0
2017-02-16T04:17:47.706Z,0
2017-02-16T04:18:28.203Z,0
2017-02-16T04:19:08.696Z,0
2017-02-16T04:19:49.185Z,0
2017-02-16T04:20:29.673Z,0
2017-02-16T04:21:10.154Z,0
2017-02-16T04:21:50.654Z,0
2017-02-16T04:22:31.142Z,0
2017-02-16T04:23:11.628Z,0
2017-02-16T04:23:52.129Z,0
2017-02-16T04:24:32.626Z,0
2017-02-16T04:25:13.114Z,0
2017-02-16T04:25:53.609Z,0
2017-02-16T04:26:34.103Z,0
2017-02-16T04:27:14.591Z,0
2017-02-16T04:27:55.087Z,0
2017-02-16T04:28:35.577Z,0
2017-02-16T04:29:16.085Z,0
2017-02-16T04:29:56.582Z,0
2017-02-16T04:30:37.133Z,0
2017-02-16T04:31:17.834Z,0
2017-02-16T04:31:58.342Z,0
2017-02-16T04:32:38.828Z,0
2017-02-16T04:33:19.338Z,0
2017-02-16T04:33:59.827Z,0
2017-02-16T04:34:40.312Z,0
2017-02-16T04:35:20.801Z,0
2017-02-16T04:36:01.307Z,0
2017-02-16T04:36:41.791Z,0
2017-02-16T04:37:22.284Z,0
2017-02-16T04:38:02.778Z,0
2017-02-16T04:38:43.269Z,0
2017-02-16T04:39:23.755Z,0
2017-02-16T04:40:04.247Z,0
2017-02-16T04:40:45.411Z,0
2017-02-16T04:41:25.222Z,0
2017-02-16T04:42:05.717Z,0
2017-02-16T04:42:46.226Z,0
2017-02-16T04:43:26.717Z,0
2017-02-16T04:44:07.202Z,0
2017-02-16T04:44:47.703Z,0
2017-02-16T04:45:28.191Z,0
2017-02-16T04:46:08.679Z,0
2017-02-16T04:46:49.171Z,0
2017-02-16T04:47:29.676Z,0
2017-02-16T04:48:10.165Z,0
2017-02-16T04:48:50.649Z,0
2017-02-16T04:49:31.127Z,0
2017-02-16T04:50:11.622Z,0
2017-02-16T04:50:52.113Z,0
2017-02-16T04:51:32.611Z,0
2017-02-16T04:52:13.116Z,0
2017-02-16T04:52:53.604Z,0
2017-02-16T04:53:34.093Z,0
2017-02-16T04:54:14.587Z,0
2017-02-16T04:54:55.075Z,0
2017-02-16T04:55:35.563Z,0
2017-02-16T04:56:16.056Z,0
2017-02-16T04:56:56.558Z,0
2017-02-16T04:57:37.050Z,0
2017-02-16T04:58:18.277Z,0
2017-02-16T04:58:58.766Z,0
2017-02-16T04:59:39.257Z,0
2017-02-16T05:00:19.746Z,0
2017-02-16T05:01:00.237Z,0
2017-02-16T05:01:40.728Z,0
2017-02-16T05:02:21.223Z,0
2017-02-16T05:03:01.716Z,0
2017-02-16T05:03:42.210Z,0
2017-02-16T05:04:22.694Z,0
2017-02-16T05:05:03.193Z,0
2017-02-16T05:05:43.682Z,0
2017-02-16T05:06:24.175Z,0
2017-02-16T05:07:04.868Z,0
2017-02-16T05:07:45.371Z,0
2017-02-16T05:08:25.857Z,0
2017-02-16T05:09:06.343Z,0
2017-02-16T05:09:46.824Z,0
2017-02-16T05:10:27.308Z,0
2017-02-16T05:11:07.809Z,0
2017-02-16T05:11:48.298Z,0
2017-02-16T05:12:28.790Z,0
2017-02-16T05:13:09.279Z,0
2017-02-16T05:13:49.771Z,0
2017-02-16T05:14:30.263Z,0
2017-02-16T05:15:10.758Z,0
2017-02-16T05:15:51.249Z,0
2017-02-16T05:16:31.733Z,0
2017-02-16T05:17:12.224Z,0
2017-02-16T05:17:52.711Z,0
2017-02-16T05:18:33.209Z,0
2017-02-16T05:19:13.709Z,0
2017-02-16T05:19:54.193Z,0
2017-02-16T05:20:34.699Z,0
2017-02-16T05:21:15.194Z,0
2017-02-16T05:21:55.688Z,0
2017-02-16T05:22:36.196Z,0
2017-02-16T05:23:16.694Z,0
2017-02-16T05:23:57.198Z,0
2017-02-16T05:24:37.702Z,0
2017-02-16T05:25:18.198Z,0
2017-02-16T05:25:58.701Z,0
2017-02-16T05:26:39.177Z,0
2017-02-16T05:27:19.670Z,0
2017-02-16T05:28:00.163Z,0
2017-02-16T05:28:40.653Z,0
2017-02-16T05:29:21.151Z,0
2017-02-16T05:30:01.630Z,0
2017-02-16T05:30:42.147Z,0
2017-02-16T05:31:22.634Z,0
2017-02-16T05:32:03.123Z,0
2017-02-16T05:32:43.631Z,0
2017-02-16T05:33:24.119Z,0
2017-02-16T05:34:04.618Z,0
2017-02-16T05:34:45.107Z,0
2017-02-16T05:35:25.595Z,0
2017-02-16T05:36:06.093Z,0
2017-02-16T05:36:46.591Z,0
2017-02-16T05:37:27.194Z,0
2017-02-16T05:38:07.689Z,0
2017-02-16T05:38:48.175Z,0
2017-02-16T05:39:28.669Z,0
2017-02-16T05:40:09.190Z,0
2017-02-16T05:40:49.686Z,0
2017-02-16T05:41:30.173Z,0
2017-02-16T05:42:10.658Z,0
2017-02-16T05:42:51.153Z,0
2017-02-16T05:43:31.650Z,0
2017-02-16T05:44:12.141Z,0
2017-02-16T05:44:52.645Z,0
2017-02-16T05:45:33.138Z,0
2017-02-16T05:46:13.636Z,0
2017-02-16T05:46:54.129Z,0
2017-02-16T05:47:34.622Z,0
2017-02-16T05:48:15.133Z,0
2017-02-16T05:48:55.629Z,0
2017-02-16T05:49:36.125Z,0
2017-02-16T05:50:16.615Z,0
2017-02-16T05:50:57.107Z,0
2017-02-16T05:51:37.649Z,0
2017-02-16T05:52:18.153Z,0
2017-02-16T05:52:58.643Z,0
2017-02-16T05:53:39.129Z,0
2017-02-16T05:54:19.624Z,0
2017-02-16T05:55:00.133Z,0
2017-02-16T05:55:40.610Z,0
2017-02-16T05:56:21.124Z,0
2017-02-16T05:57:01.608Z,0
2017-02-16T05:57:42.098Z,0
2017-02-16T05:58:22.611Z,0
2017-02-16T05:59:03.119Z,0
2017-02-16T05:59:43.611Z,0
2017-02-16T06:00:24.115Z,0
2017-02-16T06:01:04.611Z,0
2017-02-16T06:01:45.112Z,0
2017-02-16T06:02:25.598Z,4
2017-02-16T06:03:06.191Z,4
2017-02-16T06:03:46.688Z,4
2017-02-16T06:04:27.181Z,0
2017-02-16T06:05:07.671Z,0
2017-02-16T06:05:48.178Z,4
2017-02-16T06:06:28.668Z,4
2017-02-16T06:07:09.151Z,4
2017-02-16T06:07:49.642Z,4
2017-02-16T06:08:30.152Z,4
2017-02-16T06:09:10.656Z,8
2017-02-16T06:09:51.156Z,4
2017-02-16T06:10:31.661Z,8
2017-02-16T06:11:12.154Z,4
2017-02-16T06:11:52.654Z,8
2017-02-16T06:12:33.155Z,8
2017-02-16T06:13:13.654Z,12
2017-02-16T06:13:54.144Z,8
2017-02-16T06:14:34.646Z,12
2017-02-16T06:15:15.145Z,12
2017-02-16T06:15:55.634Z,12
2017-02-16T06:16:36.172Z,20
2017-02-16T06:17:16.651Z,20
2017-02-16T06:17:57.152Z,20
2017-02-16T06:18:37.651Z,20
2017-02-16T06:19:18.143Z,24
2017-02-16T06:19:58.645Z,28
2017-02-16T06:20:39.146Z,28
2017-02-16T06:21:19.634Z,32
2017-02-16T06:22:00.151Z,36
2017-02-16T06:22:40.652Z,40
2017-02-16T06:23:21.306Z,40
2017-02-16T06:24:01.776Z,48
2017-02-16T06:24:42.270Z,52
2017-02-16T06:25:22.765Z,60
2017-02-16T06:26:03.271Z,60
2017-02-16T06:26:43.767Z,68
2017-02-16T06:27:24.266Z,72
2017-02-16T06:28:04.760Z,84
2017-02-16T06:28:45.259Z,88
2017-02-16T06:29:25.750Z,96
2017-02-16T06:30:06.245Z,104
2017-02-16T06:30:46.745Z,112
2017-02-16T06:31:27.241Z,120
2017-02-16T06:32:07.742Z,128
2017-02-16T06:32:48.243Z,140
2017-02-16T06:33:28.723Z,148
2017-02-16T06:34:09.230Z,156
2017-02-16T06:34:49.744Z,172
2017-02-16T06:35:30.239Z,180
2017-02-16T06:36:10.741Z,188
2017-02-16T06:36:51.237Z,200
2017-02-16T06:37:31.739Z,216
2017-02-16T06:38:12.291Z,228
2017-02-16T06:38:52.785Z,244
2017-02-16T06:39:33.288Z,252
2017-02-16T06:40:13.782Z,268
2017-02-16T06:40:54.286Z,280
2017-02-16T06:41:34.773Z,292
2017-02-16T06:42:15.268Z,304
2017-02-16T06:42:55.788Z,316
2017-02-16T06:43:36.246Z,328
2017-02-16T06:44:16.736Z,340
2017-02-16T06:44:57.222Z,352
2017-02-16T06:45:37.728Z,368
2017-02-16T06:46:18.227Z,384
2017-02-16T06:46:58.734Z,400
2017-02-16T06:47:39.222Z,416
2017-02-16T06:48:19.723Z,432
2017-02-16T06:49:00.220Z,452
2017-02-16T06:49:40.722Z,468
2017-02-16T06:50:21.216Z,484
2017-02-16T06:51:01.703Z,500
2017-02-16T06:51:42.195Z,516
2017-02-16T06:52:22.698Z,532
2017-02-16T06:53:03.197Z,548
2017-02-16T06:53:43.699Z,564
2017-02-16T06:54:24.182Z,580
2017-02-16T06:55:04.687Z,596
2017-02-16T06:55:45.175Z,616
2017-02-16T06:56:25.674Z,640
2017-02-16T06:57:06.176Z,668
2017-02-16T06:57:46.643Z,696
2017-02-16T06:58:27.133Z,728
2017-02-16T06:59:07.640Z,760
2017-02-16T06:59:48.134Z,788
2017-02-16T07:00:28.624Z,820
2017-02-16T07:01:09.119Z,856
2017-02-16T07:01:49.622Z,888
2017-02-16T07:02:30.114Z,928
2017-02-16T07:03:10.612Z,968
2017-02-16T07:03:51.096Z,1008
2017-02-16T07:04:31.588Z,1036
2017-02-16T07:05:12.074Z,1084
2017-02-16T07:05:52.564Z,1144
2017-02-16T07:06:33.054Z,1176
2017-02-16T07:07:13.545Z,1220
2017-02-16T07:07:54.037Z,1272
2017-02-16T07:08:34.762Z,1320
2017-02-16T07:09:15.264Z,1364
2017-02-16T07:09:55.748Z,1400
2017-02-16T07:10:36.243Z,1432
2017-02-16T07:11:16.750Z,1464
2017-02-16T07:11:57.261Z,1496
2017-02-16T07:12:37.759Z,1532
2017-02-16T07:13:18.259Z,1572
2017-02-16T07:13:58.744Z,1632
2017-02-16T07:14:39.329Z,1672
2017-02-16T07:15:19.818Z,1732
2017-02-16T07:16:00.319Z,1768
2017-02-16T07:16:40.876Z,1788
2017-02-16T07:17:21.370Z,1812
2017-02-16T07:18:01.863Z,1860
2017-02-16T07:18:42.358Z,1896
2017-02-16T07:19:22.851Z,1924
2017-02-16T07:20:03.348Z,1960
2017-02-16T07:20:43.847Z,1980
2017-02-16T07:21:24.345Z,2040
2017-02-16T07:22:04.891Z,2112
2017-02-16T07:22:45.421Z,2144
2017-02-16T07:23:25.927Z,2156
2017-02-16T07:24:06.418Z,2184
2017-02-16T07:24:46.911Z,2204
2017-02-16T07:25:27.415Z,2220
2017-02-16T07:26:07.903Z,2240
2017-02-16T07:26:48.402Z,2232
2017-02-16T07:27:28.910Z,2244
2017-02-16T07:28:09.404Z,2236
2017-02-16T07:28:49.905Z,2112
2017-02-16T07:29:30.440Z,2132
2017-02-16T07:30:10.930Z,2332
2017-02-16T07:30:51.445Z,2340
2017-02-16T07:31:31.942Z,2364
2017-02-16T07:32:12.443Z,2384
2017-02-16T07:32:52.934Z,2416
2017-02-16T07:33:33.432Z,2408
2017-02-16T07:34:13.943Z,2404
2017-02-16T07:34:54.425Z,2412
2017-02-16T07:35:34.910Z,2420
2017-02-16T07:36:15.436Z,2416
2017-02-16T07:36:55.926Z,2416
2017-02-16T07:37:36.437Z,2432
2017-02-16T07:38:16.928Z,2440
2017-02-16T07:38:57.416Z,2372
2017-02-16T07:39:37.904Z,2348
2017-02-16T07:40:18.402Z,2448
2017-02-16T07:40:58.886Z,2048
2017-02-16T07:41:39.387Z,1832
2017-02-16T07:42:19.881Z,2420
2017-02-16T07:43:00.432Z,2260
2017-02-16T07:43:40.920Z,2116
2017-02-16T07:44:21.430Z,1544
2017-02-16T07:45:01.934Z,1324
2017-02-16T07:45:42.433Z,1436
2017-02-16T07:46:22.931Z,1616
2017-02-16T07:47:03.433Z,1948
2017-02-16T07:47:43.967Z,1572
2017-02-16T07:48:25.512Z,1436
2017-02-16T07:49:05.111Z,1528
2017-02-16T07:49:45.811Z,1600
2017-02-16T07:50:26.281Z,1904
2017-02-16T07:51:06.774Z,2200
2017-02-16T07:51:47.285Z,2424
2017-02-16T07:52:27.881Z,2416
2017-02-16T07:53:08.382Z,2596
2017-02-16T07:53:48.870Z,2928
2017-02-16T07:54:29.364Z,3168
2017-02-16T07:55:09.865Z,3304
2017-02-16T07:55:50.387Z,3280
2017-02-16T07:56:31.566Z,3216
2017-02-16T07:57:12.065Z,3272
2017-02-16T07:57:52.551Z,3160
2017-02-16T07:58:33.046Z,3316
2017-02-16T07:59:13.541Z,3576
2017-02-16T07:59:54.049Z,3204
2017-02-16T08:00:34.547Z,3404
2017-02-16T08:01:15.035Z,3836
2017-02-16T08:01:55.522Z,4036
2017-02-16T08:02:36.026Z,4304
2017-02-16T08:03:16.549Z,4340
2017-02-16T08:03:57.020Z,3888
2017-02-16T08:04:37.503Z,4056
2017-02-16T08:05:17.993Z,4100
2017-02-16T08:05:58.491Z,3888
2017-02-16T08:06:38.987Z,3992
2017-02-16T08:07:19.478Z,4120
2017-02-16T08:07:59.973Z,3912
2017-02-16T08:08:40.485Z,3572
2017-02-16T08:09:20.984Z,3688
2017-02-16T08:10:01.490Z,3960
2017-02-16T08:10:41.984Z,4376
2017-02-16T08:11:22.486Z,3832
2017-02-16T08:12:02.991Z,4648
2017-02-16T08:12:43.483Z,4864
2017-02-16T08:13:23.984Z,5940
2017-02-16T08:14:04.482Z,11880
2017-02-16T08:14:44.984Z,15416
2017-02-16T08:15:25.457Z,13812
2017-02-16T08:16:05.949Z,8528
2017-02-16T08:16:46.446Z,4752
2017-02-16T08:17:26.946Z,3728
2017-02-16T08:18:07.445Z,3428
2017-02-16T08:18:47.940Z,3984
2017-02-16T08:19:28.445Z,4516
2017-02-16T08:20:08.943Z,5168
2017-02-16T08:20:49.433Z,10888
2017-02-16T08:21:29.928Z,12456
2017-02-16T08:22:10.419Z,12556
2017-02-16T08:22:50.910Z,8512
2017-02-16T08:23:31.395Z,7220
2017-02-16T08:24:11.879Z,6860
2017-02-16T08:24:52.370Z,5368
2017-02-16T08:25:32.868Z,4696
2017-02-16T08:26:13.365Z,5244
2017-02-16T08:26:53.864Z,5880
2017-02-16T08:27:34.358Z,6496
2017-02-16T08:28:14.866Z,4720
2017-02-16T08:28:55.358Z,3604
2017-02-16T08:29:35.864Z,3312
2017-02-16T08:30:16.362Z,3496
2017-02-16T08:30:56.866Z,3352
2017-02-16T08:31:37.353Z,3320
2017-02-16T08:32:17.841Z,3704
2017-02-16T08:32:58.363Z,3728
2017-02-16T08:33:38.865Z,3680
2017-02-16T08:34:19.347Z,3604
2017-02-16T08:35:00.065Z,4684
2017-02-16T08:35:40.563Z,7776
2017-02-16T08:36:21.061Z,7176
2017-02-16T08:37:01.552Z,6896
2017-02-16T08:37:42.064Z,6084
2017-02-16T08:38:22.555Z,4940
2017-02-16T08:39:03.055Z,4520
2017-02-16T08:39:43.562Z,4300
2017-02-16T08:40:24.062Z,6484
2017-02-16T08:41:04.559Z,6220
2017-02-16T08:41:45.062Z,3888
2017-02-16T08:42:25.549Z,6088
2017-02-16T08:43:06.034Z,9416
2017-02-16T08:43:46.526Z,6328
2017-02-16T08:44:27.020Z,5300
2017-02-16T08:45:07.514Z,11680
2017-02-16T08:45:48.007Z,8248
2017-02-16T08:46:28.502Z,5076
2017-02-16T08:47:09.005Z,5436
2017-02-16T08:47:49.504Z,3572
2017-02-16T08:48:30.001Z,3256
2017-02-16T08:49:10.502Z,2884
2017-02-16T08:49:50.990Z,2996
2017-02-16T08:50:31.500Z,3472
2017-02-16T08:51:11.993Z,3904
2017-02-16T08:51:52.502Z,5552
2017-02-16T08:52:32.991Z,5716
2017-02-16T08:53:13.496Z,5028
2017-02-16T08:53:53.987Z,5660
2017-02-16T08:54:34.471Z,6208
2017-02-16T08:55:14.966Z,5856
2017-02-16T08:55:55.462Z,5456
2017-02-16T08:56:35.954Z,5360
2017-02-16T08:57:16.463Z,5088
2017-02-16T08:57:56.958Z,4992
2017-02-16T08:58:37.459Z,5076
2017-02-16T08:59:17.955Z,5388
2017-02-16T08:59:58.454Z,5872
2017-02-16T09:00:38.941Z,6056
2017-02-16T09:01:19.437Z,5620
2017-02-16T09:01:59.940Z,5652
2017-02-16T09:02:40.428Z,5232
2017-02-16T09:03:20.940Z,5800
2017-02-16T09:04:01.433Z,6032
2017-02-16T09:04:41.935Z,5856
2017-02-16T09:05:22.549Z,6084
2017-02-16T09:06:03.044Z,6152
2017-02-16T09:06:43.545Z,6272
2017-02-16T09:07:24.043Z,6420
2017-02-16T09:08:04.535Z,6812
2017-02-16T09:08:45.035Z,8344
2017-02-16T09:09:25.522Z,13108
2017-02-16T09:10:06.026Z,19564
2017-02-16T09:10:46.525Z,25248
2017-02-16T09:11:27.013Z,22560
2017-02-16T09:12:07.555Z,27584
2017-02-16T09:12:48.043Z,35424
2017-02-16T09:13:28.559Z,31712
2017-02-16T09:14:09.054Z,24800
2017-02-16T09:14:49.542Z,27136
2017-02-16T09:15:30.042Z,30176
2017-02-16T09:16:10.525Z,33600
2017-02-16T09:16:51.023Z,35744
2017-02-16T09:17:31.493Z,35008
2017-02-16T09:18:11.991Z,37888
2017-02-16T09:18:52.479Z,34912
2017-02-16T09:19:32.995Z,35840
2017-02-16T09:20:13.497Z,34368
2017-02-16T09:20:53.992Z,31680
2017-02-16T09:21:34.494Z,20768
2017-02-16T09:22:14.992Z,11764
2017-02-16T09:22:55.495Z,6412
2017-02-16T09:23:35.991Z,7040
2017-02-16T09:24:16.523Z,10804
2017-02-16T09:24:57.023Z,10884
2017-02-16T09:25:37.522Z,8656
2017-02-16T09:26:18.016Z,7060
2017-02-16T09:26:58.512Z,6528
2017-02-16T09:27:39.013Z,5148
2017-02-16T09:28:19.505Z,4976
2017-02-16T09:29:00.027Z,4976
2017-02-16T09:29:40.529Z,4924
2017-02-16T09:30:21.013Z,4864
2017-02-16T09:31:01.507Z,4948
2017-02-16T09:31:42.016Z,5008
2017-02-16T09:32:22.509Z,5076
2017-02-16T09:33:03.024Z,5048
2017-02-16T09:33:43.509Z,5076
2017-02-16T09:34:24.012Z,5080
2017-02-16T09:35:04.497Z,5224
2017-02-16T09:35:45.006Z,5188
2017-02-16T09:36:25.507Z,5176
2017-02-16T09:37:06.009Z,5208
2017-02-16T09:37:46.492Z,5152
2017-02-16T09:38:26.983Z,4992
2017-02-16T09:39:07.487Z,4996